Tiempo atmosférico en la estación meteorológica de Torremolinos, Málaga (85 m.)



Fecha
DESCASC
Temp. máxima en grados centígrados (hora)
DESCASC
Temp. mínima en grados centígrados (hora)
DESCASC
Temp. media en grados centígrados
DESCASC
Racha de viento máxima en m/sg (hora)
DESCASC
Velocidad máxima media en intervalos de 10 minutos(hora)
DESCASC
Precipitaciones diarias en mm
DESCASC
Precipitaciones de 00:00 a 06:00 en mm
DESCASC
Precipitaciones de 06:00 a 12:00 en mm
DESCASC
Precipitaciones de 12:00 a 18:00 en mm
DESCASC
Precipitaciones de 18:00 a 24:00 en mm
DESCASC
05-04-2020 18 (16:10) 12.2 (06:20) 15.1 5.83 (12:40) 2.5 (12:40) 0 0 0 0 0
04-04-2020 17.3 (12:10) 13.8 (23:59) 15.5 7.5 (16:30) 3.61 (09:20) 0 0 0 0 0
03-04-2020 18.1 (10:40) 11.5 (05:30) 14.8 8.61 (07:10) 3.61 (07:10) 0 0 0 0 0
02-04-2020 16.5 (18:00) 8.7 (00:00) 12.6 10.28 (08:30) 4.44 (08:30) 6 0 5.4 0.6 0
01-04-2020 19 (18:00) 11.3 (00:00) 15.2 9.72 (17:10) 4.44 (17:00) 0 0 0 0 0
31-03-2020 15.2 (16:50) 12.3 (00:00) 13.8 11.67 (07:50) 4.44 (07:50) 44.6 13.2 17 13.4 1
30-03-2020 18.8 (14:50) 11.4 (00:00) 15.1 6.67 (15:50) 3.33 (15:40) 0 0 0 0 0
29-03-2020 17.9 (15:30) 10.1 (00:00) 14 6.94 (15:30) 3.61 (15:20) 0 0 0 0 0
28-03-2020 15.8 (16:00) 11.6 (00:00) 13.7 7.22 (05:50) 3.33 (11:30) 8.2 2.4 5.6 0.2 0
27-03-2020 14.7 (10:30) 12.1 (00:00) 13.4 9.17 (10:40) 4.72 (07:10) 2.2 0 0 1.6 0.6
26-03-2020 23.7 (16:50) 9.5 (00:00) 16.6 7.22 (17:30) 3.06 (14:00) 0 0 0 0 0
25-03-2020 14.3 (17:30) 10.5 (00:00) 12.4 5.56 (05:50) 2.5 (06:00) 14.8 7.2 7.4 0.2 0
24-03-2020 19.8 (13:40) 13.5 (00:00) 16.6 9.17 (01:30) 4.17 (07:30) 1.4 0 0.8 0 0.6
23-03-2020 13.6 (23:20) 9.7 (00:00) 11.7 6.94 (23:30) 2.5 (23:20) 27.4 0 1 25.8 0.6
22-03-2020 14.6 (13:20) 10.3 (07:40) 12.5 5 (00:30) 2.22 (11:30) 9.2 6.2 0.6 0.8 1.6
21-03-2020 17 (14:00) 10.5 (00:00) 13.8 8.33 (16:50) 3.89 (13:10) 27.2 22.8 0.2 1.2 3
20-03-2020 18.7 (16:40) 14.7 (00:00) 16.7 9.17 (22:10) 4.44 (22:10) 0 0 0 0 0
19-03-2020 18.1 (14:30) 14.9 (00:00) 16.5 8.33 (15:00) 3.61 (15:00) 0 0 0 0 0
18-03-2020 18.8 (13:30) 15.5 (00:00) 17.1 8.89 (01:30) 5.28 (01:30) 0 0 0 0 0
17-03-2020 17.2 (14:20) 9.5 (00:00) 13.4 10.83 (13:30) 5.28 (14:00) 0 0 0 0 0
16-03-2020 19.2 (15:30) 12.1 (00:00) 15.7 11.11 (11:20) 4.44 (07:30) 0.2 0.2 0 0 0
15-03-2020 16.3 (15:30) 12.7 (00:00) 14.5 3.61 (16:20) 1.67 (13:40) 1.2 0 0 1.2 0
14-03-2020 18.5 (12:30) 13.4 (00:00) 15.9 5 (13:50) 2.5 (13:50) 0 0 0 0 0
13-03-2020 21.2 (10:40) 13.1 (07:50) 17.2 4.17 (18:30) 2.22 (14:40) 0 0 0 0 0
12-03-2020 25.6 (12:20) 14.7 (00:00) 20.2 5.28 (12:30) 2.22 (15:00) 0 0 0 0 0
11-03-2020 24 (17:10) 12.5 (00:00) 18.3 3.89 (12:30) 2.5 (12:30) 0 0 0 0 0
10-03-2020 22.1 (11:20) 13.8 (00:00) 18 11.39 (03:10) 4.72 (03:20) 0 0 0 0 0

Gráficas

Temp. máximas Temp. mínimas Temp. medias Precipitaciones Rachas de viento máximas Velocidades máximas media en intervalos de 10 minutos

Datos horarios

Fecha y hora oficial Temperatura (ºC) Velocidad del viento (km/h) Dirección del viento Racha (km/h) Dirección de racha Precipitación (mm) Presión (hPa) Tendencia (hPa) Humedad (%)
2020-04-08 23:00:00 15.5 2 Sudeste 7 Sudeste 0 -- -- 86
2020-04-08 22:00:00 15.5 3 Sudeste 7 Este 0 -- -- 85
2020-04-08 21:00:00 15.6 2 Sur 10 Sudeste 0 -- -- 84
2020-04-08 20:00:00 16 3 Sur 13 Sudeste 0 -- -- 82
2020-04-08 19:00:00 16.4 5 Sur 13 Sudeste 0 -- -- 79
2020-04-08 18:00:00 16.6 7 Sudeste 14 Este 0 -- -- 76
2020-04-08 17:00:00 17.5 6 Sur 17 Este 0 -- -- 73
2020-04-08 16:00:00 16.8 7 Sur 18 Sudeste 0 -- -- 74
2020-04-08 15:00:00 17 10 Sudeste 18 Sudeste 0 -- -- 74
2020-04-08 14:00:00 17.4 11 Sudeste 22 Sur 0 -- -- 74
2020-04-08 13:00:00 16.8 8 Sudeste 18 Sudeste 0 -- -- 77
2020-04-08 12:00:00 15.7 5 Sudeste 13 Sur 0 -- -- 85
2020-04-08 11:00:00 15.5 5 Sudeste 13 Sudeste 0 -- -- 87
2020-04-08 10:00:00 15.2 3 Sur 8 Sur 0 -- -- 88
2020-04-08 09:00:00 15 2 Sur 9 Sur 0 -- -- 89
2020-04-08 08:00:00 14.9 2 Sudoeste 6 Sudeste 0 -- -- 90
2020-04-08 07:00:00 14.9 0 Calma 6 Norte 0 -- -- 90
2020-04-08 06:00:00 14.8 0 Calma 5 Norte 0 -- -- 91
2020-04-08 05:00:00 14.8 0 Calma 3 Nordeste 0 -- -- 92
2020-04-08 04:00:00 14.7 0 Calma 5 Nordeste 0 -- -- 92
2020-04-08 03:00:00 14.5 0 Calma 4 Este 0 -- -- 91
2020-04-08 02:00:00 14.7 0 Calma 3 Norte 0 -- -- 90
2020-04-08 01:00:00 14.8 0 Calma 3 Norte 0 -- -- 89
2020-04-08 00:00:00 15.2 0 Calma 4 Nordeste 0 -- -- 90
2020-04-07 23:00:00 15 0 Calma 8 Este 0 -- -- 89
2020-04-07 22:00:00 15 0 Calma 4 Sur 0 -- -- 88
2020-04-07 21:00:00 15.7 0 Calma 3 Sur 0 -- -- 83
2020-04-07 20:00:00 16.2 0 Calma 8 Este 0 -- -- 80
2020-04-07 19:00:00 16.4 4 Sudeste 12 Sudeste 0 -- -- 78
2020-04-07 18:00:00 16.5 4 Sur 10 Sudeste 0 -- -- 79
2020-04-07 17:00:00 16.6 6 Sudeste 11 Sudeste 0 -- -- 83
2020-04-07 16:00:00 16.4 4 Sur 10 Este 0 -- -- 86
2020-04-07 15:00:00 15.6 0 Calma 4 Este 0 -- -- 89
2020-04-07 14:00:00 15.5 4 Este 14 Sudeste 0 -- -- 88
2020-04-07 13:00:00 16.1 5 Sudeste 13 Sudeste 0 -- -- 84
2020-04-07 12:00:00 16.2 5 Sudeste 13 Sudeste 0 -- -- 85
2020-04-07 11:00:00 15.7 6 Sudeste 12 Sudeste 0 -- -- 88
2020-04-07 10:00:00 15.1 4 Sur 9 Sudeste 0 -- -- 92
2020-04-07 09:00:00 14.4 0 Calma 2 Oeste 0 -- -- 93
2020-04-07 08:00:00 13.9 0 Calma 2 Noroeste 0 -- -- 93
2020-04-07 07:00:00 14.1 0 Calma 2 Norte 0 -- -- 91
2020-04-07 06:00:00 14.5 0 Calma 3 Nordeste 0 -- -- 91
2020-04-07 05:00:00 14.9 0 Calma 4 Nordeste 0 -- -- 90
2020-04-07 04:00:00 15.1 0 Calma 6 Nordeste 0 -- -- 89
2020-04-07 03:00:00 15.2 4 Nordeste 11 Este 0 -- -- 88
2020-04-07 02:00:00 15.2 3 Nordeste 5 Nordeste 0 -- -- 84
2020-04-07 01:00:00 15.3 2 Noroeste 7 Noroeste 0 -- -- 86
2020-04-07 00:00:00 15.4 0 Calma 5 Sur 0 -- -- 85
2020-04-06 23:00:00 15.4 2 Sudoeste 9 Sur 0 -- -- 84
2020-04-06 22:00:00 15.4 4 Sudoeste 10 Sudoeste 0 -- -- 83
2020-04-06 21:00:00 15.3 3 Sudoeste 9 Sudoeste 0 -- -- 83
2020-04-06 20:00:00 15.9 4 Sudoeste 13 Sudoeste 0 -- -- 80
2020-04-06 19:00:00 17 6 Sudoeste 14 Sur 0 -- -- 76
2020-04-06 18:00:00 17.7 6 Sur 15 Sudoeste 0 -- -- 74
2020-04-06 17:00:00 18.5 6 Sur 15 Oeste 0 -- -- 73
2020-04-06 16:00:00 17.9 7 Sudoeste 17 Sudeste 0 -- -- 74
2020-04-06 15:00:00 17.4 6 Sudeste 15 Sudeste 0 -- -- 76
2020-04-06 14:00:00 17 7 Sudeste 17 Sudeste 0 -- -- 74
2020-04-06 13:00:00 16.7 6 Sudeste 11 Sudeste 0 -- -- 76
2020-04-06 12:00:00 16.5 5 Sudeste 12 Sudeste 0 -- -- 76
2020-04-06 11:00:00 15.4 3 Sudeste 7 Este 0 -- -- 85
2020-04-06 10:00:00 14.7 0 Calma 5 Este 0 -- -- 90
2020-04-06 09:00:00 13.8 0 Calma 2 Nordeste 0 -- -- 93
2020-04-06 08:00:00 13.1 0 Calma 2 Sudoeste 0 -- -- 93
2020-04-06 07:00:00 12.7 0 Calma 2 Sudoeste 0 -- -- 93
2020-04-06 06:00:00 12 0 Calma 2 Oeste 0 -- -- 92
2020-04-06 05:00:00 11.8 0 Calma -- -- 0 -- -- 91
2020-04-06 04:00:00 12 0 Calma 0 Calma 0 -- -- 90
2020-04-06 03:00:00 13 0 Calma 3 Noroeste 0 -- -- 90
2020-04-06 02:00:00 14.2 0 Calma 4 Oeste 0 -- -- 89
2020-04-06 01:00:00 14.3 0 Calma 2 Oeste 0 -- -- 89
2020-04-06 00:00:00 14.3 0 Calma 4 Sur 0 -- -- 87
2020-04-05 23:00:00 14.8 0 Calma 7 Sudeste 0 -- -- 85
2020-04-05 22:00:00 14.9 0 Calma 6 Sudeste 0 -- -- 84
2020-04-05 21:00:00 15.2 2 Sur 9 Sudeste 0 -- -- 80
2020-04-05 20:00:00 15.7 4 Sudeste 10 Sudeste 0 -- -- 77
2020-04-05 19:00:00 16.4 6 Sudeste 12 Sur 0 -- -- 74
2020-04-05 18:00:00 17.3 6 Sudeste 19 Sudeste 0 -- -- 71
2020-04-05 17:00:00 17.3 9 Sudeste 20 Este 0 -- -- 71
2020-04-05 16:00:00 17.8 8 Sudeste 18 Este 0 -- -- 69
2020-04-05 15:00:00 17.8 6 Sudeste 19 Sudeste 0 -- -- 68
2020-04-05 14:00:00 17.5 9 Sur 19 Sudeste 0 -- -- 66
2020-04-05 13:00:00 17.5 8 Sur 21 Oeste 0 -- -- 65
2020-04-05 12:00:00 17.2 6 Sur 17 Sur 0 -- -- 66
2020-04-05 11:00:00 16.7 6 Sudoeste 15 Sudoeste 0 -- -- 66
2020-04-05 10:00:00 15.4 3 Sudoeste 8 Oeste 0 -- -- 70
2020-04-05 09:00:00 13.1 2 Oeste 8 Oeste 0 -- -- 85
2020-04-05 08:00:00 12.7 0 Calma 5 Oeste 0 -- -- 88
2020-04-05 07:00:00 12.4 0 Calma 8 Oeste 0 -- -- 90
2020-04-05 06:00:00 12.4 0 Calma 4 Noroeste 0 -- -- 90
2020-04-05 05:00:00 12.6 0 Calma 4 Oeste 0 -- -- 91
2020-04-05 04:00:00 12.8 0 Calma 6 Oeste 0 -- -- 90
2020-04-05 03:00:00 13.1 0 Calma 5 Sur 0 -- -- 90
2020-04-05 02:00:00 13.3 2 Oeste 5 Sudoeste 0 -- -- 89
2020-04-05 01:00:00 13.5 0 Calma 4 Noroeste 0 -- -- 87
2020-04-05 00:00:00 13.8 0 Calma 6 Oeste 0 -- -- 82
2020-04-04 23:00:00 14.5 2 Oeste 8 Oeste 0 -- -- 79
2020-04-04 22:00:00 15.3 2 Oeste 18 Sudoeste 0 -- -- 74
2020-04-04 21:00:00 15.7 5 Oeste 18 Sudoeste 0 -- -- 71
2020-04-04 20:00:00 16.1 6 Sudoeste 21 Sudoeste 0 -- -- 70
2020-04-04 19:00:00 16.8 8 Sudoeste 15 Sudoeste 0 -- -- 68
2020-04-04 18:00:00 16.4 3 Sudoeste 20 Nordeste 0 -- -- 72
2020-04-04 17:00:00 15.9 6 Este 27 Nordeste 0 -- -- 78
2020-04-04 16:00:00 15.8 8 Nordeste 14 Nordeste 0 -- -- 77
2020-04-04 15:00:00 16 6 Sudoeste 21 Oeste 0 -- -- 72
2020-04-04 14:00:00 16.5 6 Sudoeste 24 Sur 0 -- -- 68
2020-04-04 13:00:00 16.8 5 Sudoeste 25 Sudeste 0 -- -- 65
2020-04-04 12:00:00 17.1 10 Sudeste 23 Sudeste 0 -- -- 62
2020-04-04 11:00:00 16.5 7 Sudeste 25 Sudeste 0 -- -- 65
2020-04-04 10:00:00 15.3 9 Sudeste 24 Sudeste 0 -- -- 72
2020-04-04 09:00:00 15.5 9 Sudeste 25 Sudeste 0 -- -- 75
2020-04-04 08:00:00 14 4 Sudeste 21 Sudeste 0 -- -- 79
2020-04-04 07:00:00 14.2 7 Este 21 Este 0 -- -- 78
2020-04-04 06:00:00 14.1 6 Este 20 Sudeste 0 -- -- 78
2020-04-04 05:00:00 14.2 8 Este 21 Este 0 -- -- 78
2020-04-04 04:00:00 14.1 7 Este 21 Sudeste 0 -- -- 77
2020-04-04 03:00:00 14.2 8 Este 22 Sur 0 -- -- 80
2020-04-04 02:00:00 14.5 12 Este 24 Sudeste 0 -- -- 79
2020-04-04 01:00:00 14.5 8 Este 23 Este 0 -- -- 79
2020-04-04 00:00:00 14.6 8 Este 18 Este 0 -- -- 78
2020-04-03 23:00:00 14.7 6 Sudeste 15 Este 0 -- -- 78
2020-04-03 22:00:00 14.7 5 Este 14 Sudeste 0 -- -- 76
2020-04-03 21:00:00 15.1 7 Este 16 Este 0 -- -- 77
2020-04-03 20:00:00 15.5 7 Este 14 Sudeste 0 -- -- 76
2020-04-03 19:00:00 16 9 Este 18 Sudeste 0 -- -- 74
2020-04-03 18:00:00 16.8 9 Sudeste 21 Sudeste 0 -- -- 73
2020-04-03 17:00:00 17.4 11 Sudeste 20 Sudeste 0 -- -- 71
2020-04-03 16:00:00 17.1 12 Sudeste 21 Sudeste 0 -- -- 69
2020-04-03 15:00:00 17.5 11 Sudeste 19 Este 0 -- -- 70
2020-04-03 14:00:00 17.6 10 Este 19 Este 0 -- -- 68
2020-04-03 13:00:00 17.5 10 Este 20 Este 0 -- -- 65
2020-04-03 12:00:00 17 10 Sudeste 19 Sur 0 -- -- 64
2020-04-03 11:00:00 17.4 11 Este 18 Nordeste 0 -- -- 53
2020-04-03 10:00:00 16.9 8 Norte 26 Noroeste 0 -- -- 55
2020-04-03 09:00:00 15.1 11 Noroeste 25 Norte 0 -- -- 58
2020-04-03 08:00:00 13.6 11 Noroeste 31 Noroeste 0 -- -- 62
2020-04-03 07:00:00 13.3 12 Noroeste 30 Norte 0 -- -- 64
2020-04-03 06:00:00 12.2 6 Noroeste 19 Norte 0 -- -- 70
2020-04-03 05:00:00 12.2 0 Calma 15 Norte 0 -- -- 69
2020-04-03 04:00:00 12.5 5 Noroeste 12 Norte 0 -- -- 67
2020-04-03 03:00:00 12.7 4 Noroeste 15 Noroeste 0 -- -- 67
2020-04-03 02:00:00 13.2 4 Noroeste 29 Noroeste 0 -- -- 63
2020-04-03 01:00:00 13.5 10 Norte 24 Norte 0 -- -- 62
2020-04-03 00:00:00 13.3 6 Noroeste 28 Noroeste 0 -- -- 63
2020-04-02 23:00:00 13.5 7 Norte 27 Noroeste 0 -- -- 63
2020-04-02 22:00:00 13.8 7 Norte 21 Noroeste 0 -- -- 62
2020-04-02 21:00:00 13.1 3 Noroeste 13 Este 0 -- -- 68
2020-04-02 20:00:00 14.1 3 Norte 14 Nordeste 0 -- -- 63
2020-04-02 19:00:00 14.4 2 Nordeste 15 Norte 0 -- -- 68
2020-04-02 18:00:00 16.5 5 Norte 21 Noroeste 0 -- -- 52
2020-04-02 17:00:00 14.4 5 Noroeste 26 Norte 0 -- -- 66
2020-04-02 16:00:00 12.2 6 Sudoeste 17 Sudoeste 0 -- -- 74
2020-04-02 15:00:00 13.2 5 Sudoeste 13 Sudeste 0 -- -- 76
2020-04-02 14:00:00 13.2 5 Sudeste 10 Sudeste 0.4 -- -- 82
2020-04-02 13:00:00 12.6 2 Este 9 Sudeste 0.2 -- -- 80
2020-04-02 12:00:00 12 3 Sudeste 17 Sur 0 -- -- 75
2020-04-02 11:00:00 13.2 5 Sudoeste 13 Sudoeste 0 -- -- 79
2020-04-02 10:00:00 10.3 3 Sudoeste 14 Este 0 -- -- 92
2020-04-02 09:00:00 9 5 Norte 37 Norte 3.4 -- -- 90
2020-04-02 08:00:00 10.6 8 Noroeste 37 Norte 1.6 -- -- 87
2020-04-02 07:00:00 11.9 0 Calma 5 Sudoeste 0.4 -- -- 90
2020-04-02 06:00:00 12 0 Calma 9 Sudoeste 0 -- -- 85
2020-04-02 05:00:00 11.4 2 Oeste 6 Sudoeste 0 -- -- 79
2020-04-02 04:00:00 11.3 0 Calma 14 Sudoeste 0 -- -- 76
2020-04-02 03:00:00 12.1 3 Sudoeste 9 Sur 0 -- -- 73
2020-04-02 02:00:00 11.2 0 Calma 4 Oeste 0 -- -- 75
2020-04-02 01:00:00 12 2 Oeste 9 Oeste 0 -- -- 69
2020-04-02 00:00:00 12.6 0 Calma 5 Nordeste 0 -- -- 70
2020-04-01 23:00:00 13.8 3 Nordeste 13 Norte 0 -- -- 65
2020-04-01 22:00:00 14.4 0 Calma 17 Noroeste 0 -- -- 61
2020-04-01 21:00:00 15.1 4 Oeste 21 Sudoeste 0 -- -- 58
2020-04-01 20:00:00 16.3 7 Sudoeste 29 Oeste 0 -- -- 54
2020-04-01 19:00:00 17.3 9 Sudoeste 26 Sudoeste 0 -- -- 57
2020-04-01 18:00:00 19 7 Oeste 35 Sudoeste 0 -- -- 55
2020-04-01 17:00:00 17.7 16 Sudoeste 32 Sudoeste 0 -- -- 65
2020-04-01 16:00:00 18 10 Sur 26 Sudoeste 0 -- -- 67
2020-04-01 15:00:00 17.2 11 Sudoeste 30 Sudoeste 0 -- -- 70
2020-04-01 14:00:00 17.1 11 Sudoeste 27 Sudoeste 0 -- -- 76
2020-04-01 13:00:00 15.7 8 Sudoeste 21 Sudoeste 0 -- -- 82
2020-04-01 12:00:00 15.6 9 Sudoeste 19 Sudoeste 0 -- -- 82
2020-04-01 11:00:00 14 5 Sudoeste 11 Sudoeste 0 -- -- 92
2020-04-01 10:00:00 13.4 2 Este 4 Nordeste 0 -- -- 96
2020-04-01 09:00:00 12.2 0 Calma 2 Sudoeste 0 -- -- 96
2020-04-01 08:00:00 11.4 0 Calma 2 Sudoeste 0 -- -- 94
2020-04-01 07:00:00 12.2 0 Calma 4 Norte 0 -- -- 94
2020-04-01 06:00:00 12.1 0 Calma 6 Sudoeste 0 -- -- 93
2020-04-01 05:00:00 12.1 0 Calma 11 Sudoeste 0 -- -- 94
2020-04-01 04:00:00 12.1 5 Oeste 12 Oeste 0 -- -- 95
2020-04-01 03:00:00 12.5 4 Sudoeste 9 Sudoeste 0 -- -- 95
2020-04-01 02:00:00 12.5 0 Calma 8 Sudoeste 0 -- -- 94
2020-04-01 01:00:00 13.2 2 Oeste 13 Sudoeste 0 -- -- 95
2020-04-01 00:00:00 12.5 3 Sudoeste 13 Sudoeste 0 -- -- 95
2020-03-31 23:00:00 13.1 2 Oeste 7 Sur 0.4 -- -- 96
2020-03-31 22:00:00 13.9 0 Calma 4 Oeste 0 -- -- 96
2020-03-31 21:00:00 14.4 0 Calma 6 Sudeste 0 -- -- 95
2020-03-31 20:00:00 14.7 0 Calma 18 Sur 0.2 -- -- 95
2020-03-31 19:00:00 14.8 7 Sur 20 Sudoeste 0.4 -- -- 95
2020-03-31 18:00:00 14.9 5 Sur 16 Sudoeste 0.6 -- -- 95
2020-03-31 17:00:00 15 6 Sudoeste 19 Sudeste 0.2 -- -- 93
2020-03-31 16:00:00 14.4 4 Sudeste 11 Sudeste 0.2 -- -- 95
2020-03-31 15:00:00 14 4 Este 11 Este 0.2 -- -- 95
2020-03-31 14:00:00 13.7 4 Este 12 Sudeste 5 -- -- 96
2020-03-31 13:00:00 13.8 6 Sudoeste 34 Oeste 7.2 -- -- 96
2020-03-31 12:00:00 13.2 4 Sur 13 Sur 2.4 -- -- 95
2020-03-31 11:00:00 12.9 4 Sudoeste 25 Sudoeste 6.4 -- -- 95
2020-03-31 10:00:00 13.5 11 Sudoeste 30 Sudoeste 3 -- -- 95
2020-03-31 09:00:00 13.4 9 Sudoeste 38 Sur 0.4 -- -- 95
2020-03-31 08:00:00 13.1 15 Sur 42 Sur 2 -- -- 95
2020-03-31 07:00:00 13.3 13 Sudeste 29 Este 2.8 -- -- 95
2020-03-31 06:00:00 12.7 8 Este 22 Sudeste 1.4 -- -- 94
2020-03-31 05:00:00 12.6 6 Sur 17 Oeste 1.2 -- -- 93
2020-03-31 04:00:00 12.3 5 Sudoeste 13 Sudoeste 3 -- -- 92
2020-03-31 03:00:00 13.2 8 Oeste 15 Oeste 4.8 -- -- 92
2020-03-31 02:00:00 14.1 2 Sudoeste 13 Sudoeste 2.8 -- -- 89
2020-03-31 01:00:00 14.8 4 Sudoeste 12 Sudoeste 0 -- -- 88
2020-03-31 00:00:00 14.8 4 Este 9 Sudeste 0 -- -- 89
2020-03-30 23:00:00 14.7 0 Calma 2 Oeste 0 -- -- 85
2020-03-30 22:00:00 14.7 0 Calma 5 Sudoeste 0 -- -- 83
2020-03-30 21:00:00 15.4 0 Calma 9 Sur 0 -- -- 79
2020-03-30 20:00:00 15.9 2 Sudoeste 14 Este 0 -- -- 76
2020-03-30 19:00:00 16.5 5 Sudeste 15 Este 0 -- -- 75
2020-03-30 18:00:00 16.8 6 Sudoeste 18 Sudoeste 0 -- -- 74
2020-03-30 17:00:00 16.5 10 Sudoeste 22 Sudoeste 0 -- -- 74
2020-03-30 16:00:00 17.9 10 Sudoeste 24 Sudoeste 0 -- -- 64
2020-03-30 15:00:00 18.8 8 Sudoeste 19 Sudoeste 0 -- -- 57
2020-03-30 14:00:00 17.7 5 Sudoeste 18 Sur 0 -- -- 60
2020-03-30 13:00:00 17 9 Sur 19 Sur 0 -- -- 71
2020-03-30 12:00:00 16.2 6 Sudeste 14 Sur 0 -- -- 77
2020-03-30 11:00:00 16.2 5 Sur 10 Sur 0 -- -- 75
2020-03-30 10:00:00 14.9 2 Sur 5 Sudeste 0 -- -- 83
2020-03-30 09:00:00 12.2 0 Calma 3 Sudoeste 0 -- -- 89
2020-03-30 08:00:00 12.1 0 Calma 6 Oeste 0 -- -- 87
2020-03-30 07:00:00 11.4 2 Oeste 5 Oeste 0 -- -- 85
2020-03-30 06:00:00 12.2 0 Calma 6 Oeste 0 -- -- 84
2020-03-30 05:00:00 12.4 2 Oeste 6 Oeste 0 -- -- 89
2020-03-30 04:00:00 12.3 0 Calma 2 Noroeste 0 -- -- 90
2020-03-30 03:00:00 12.4 0 Calma 3 Sudoeste 0 -- -- 89
2020-03-30 02:00:00 12.7 0 Calma 3 Sudoeste 0 -- -- 89
2020-03-30 01:00:00 12.5 0 Calma 3 Sudoeste 0 -- -- 87
2020-03-30 00:00:00 12.9 0 Calma 4 Sudoeste 0 -- -- 84
2020-03-29 23:00:00 13.4 0 Calma 8 Oeste 0 -- -- 82
2020-03-29 22:00:00 13.8 3 Oeste 13 Sudoeste 0 -- -- 80
2020-03-29 21:00:00 14.7 6 Sudoeste 17 Sur 0 -- -- 76
2020-03-29 20:00:00 15.2 9 Sudoeste 17 Sudoeste 0 -- -- 73
2020-03-29 19:00:00 16.2 8 Sudoeste 19 Sudoeste 0 -- -- 69
2020-03-29 18:00:00 16.9 7 Sudoeste 22 Sudoeste 0 -- -- 66
2020-03-29 17:00:00 17.2 12 Sudoeste 24 Sudoeste 0 -- -- 62
2020-03-29 16:00:00 17.3 12 Sudoeste 25 Sudoeste 0 -- -- 59
2020-03-29 15:00:00 17.6 10 Sudoeste 22 Sudoeste 0 -- -- 57
2020-03-29 14:00:00 17.1 10 Sudoeste 20 Oeste 0 -- -- 59
2020-03-29 13:00:00 17.3 7 Sudoeste 18 Sudoeste 0 -- -- 56
2020-03-29 12:00:00 17.1 6 Sudoeste 13 Sur 0 -- -- 58
2020-03-29 11:00:00 16.9 5 Sudeste 9 Sudeste 0 -- -- 63
2020-03-29 10:00:00 14.9 3 Sudeste 4 Este 0 -- -- 78
2020-03-29 09:00:00 11.5 0 Calma 4 Sudoeste 0 -- -- 90
2020-03-29 08:00:00 10.5 0 Calma 6 Norte 0 -- -- 89
2020-03-29 07:00:00 11 0 Calma 5 Noroeste 0 -- -- 89
2020-03-29 06:00:00 11.4 0 Calma 3 Oeste 0 -- -- 88
2020-03-29 05:00:00 11.6 0 Calma 2 Noroeste 0 -- -- 85
2020-03-29 03:00:00 13.2 0 Calma 11 Este 0 -- -- 83
2020-03-29 01:00:00 13.2 0 Calma 7 Sur 0 -- -- 85
2020-03-29 00:00:00 12.7 0 Calma 2 Sudeste 0 -- -- 88
2020-03-28 23:00:00 12.3 0 Calma 4 Noroeste 0 -- -- 88
2020-03-28 22:00:00 11.8 0 Calma 2 Oeste 0 -- -- 87
2020-03-28 21:00:00 11.8 0 Calma 3 Oeste 0 -- -- 83
2020-03-28 20:00:00 13.1 0 Calma 6 Sudeste 0 -- -- 79
2020-03-28 19:00:00 14 0 Calma 9 Sudeste 0 -- -- 74
2020-03-28 18:00:00 14.5 4 Sudeste 14 Sudeste 0 -- -- 72
2020-03-28 17:00:00 15.4 7 Sudeste 19 Sudeste 0 -- -- 66
2020-03-28 16:00:00 15.8 10 Sudeste 18 Sudeste 0 -- -- 67
2020-03-28 15:00:00 14.4 8 Sudeste 18 Sudeste 0 -- -- 73
2020-03-28 14:00:00 13.7 7 Sudeste 18 Este 0 -- -- 77
2020-03-28 13:00:00 13.5 6 Sudeste 22 Sudeste 0.2 -- -- 79
2020-03-28 12:00:00 12.9 8 Sudeste 25 Sudeste 0 -- -- 86
2020-03-28 11:00:00 12.6 8 Sudeste 19 Sudeste 0.8 -- -- 93
2020-03-28 10:00:00 12.4 5 Este 17 Sudeste 0.2 -- -- 93
2020-03-28 09:00:00 12.4 6 Este 19 Sudeste 2.2 -- -- 94
2020-03-28 08:00:00 12.4 6 Este 23 Este 0.8 -- -- 93
2020-03-28 07:00:00 12.5 8 Este 24 Este 1.6 -- -- 93
2020-03-28 06:00:00 13.1 9 Este 26 Sudeste 0.2 -- -- 94
2020-03-28 05:00:00 13.2 3 Sur 9 Sudeste 0 -- -- 93
2020-03-28 04:00:00 13 0 Calma 8 Sur 0.4 -- -- 92
2020-03-28 03:00:00 13.5 0 Calma 15 Sudeste 1.8 -- -- 90
2020-03-28 02:00:00 13.9 8 Sudeste 18 Este 0 -- -- 87
2020-03-28 01:00:00 13.8 2 Sur 11 Sudeste 0 -- -- 88
2020-03-28 00:00:00 13.5 4 Sudeste 10 Sudoeste 0 -- -- 91
2020-03-27 23:00:00 13.2 0 Calma 8 Sur 0 -- -- 91
2020-03-27 22:00:00 12.9 0 Calma 4 Sudeste 0.2 -- -- 92
2020-03-27 21:00:00 12.9 0 Calma 5 Sudeste 0 -- -- 91
2020-03-27 20:00:00 13 0 Calma 9 Sur 0.4 -- -- 89
2020-03-27 19:00:00 13.4 0 Calma 15 Este 0 -- -- 87
2020-03-27 18:00:00 13.2 0 Calma 10 Sudoeste 0 -- -- 88
2020-03-27 17:00:00 13.3 0 Calma 26 Sudeste 0.6 -- -- 85
2020-03-27 16:00:00 13.9 15 Sudeste 27 Sudeste 0 -- -- 79
2020-03-27 15:00:00 13.9 9 Sudeste 22 Sudeste 0.4 -- -- 82
2020-03-27 14:00:00 13.4 10 Este 22 Este 0.6 -- -- 85
2020-03-27 13:00:00 14 8 Este 31 Sudeste 0 -- -- 80
2020-03-27 12:00:00 14.3 14 Sudeste 28 Sudeste 0 -- -- 76
2020-03-27 11:00:00 14.6 11 Sudeste 33 Sudeste 0 -- -- 73
2020-03-27 10:00:00 14.4 12 Sudeste 28 Este 0 -- -- 75
2020-03-27 09:00:00 14.4 13 Sudeste 33 Sudeste 0 -- -- 75
2020-03-27 08:00:00 14.3 16 Sudeste 30 Este 0 -- -- 78
2020-03-27 07:00:00 14.1 13 Sudeste 29 Sudeste 0 -- -- 82
2020-03-27 06:00:00 14.3 13 Sudeste 31 Sudeste 0 -- -- 85
2020-03-27 05:00:00 14.2 9 Nordeste 23 Nordeste 0 -- -- 87
2020-03-27 04:00:00 12.7 8 Nordeste 16 Nordeste 0 -- -- 78
2020-03-27 03:00:00 12.5 0 Calma 4 Noroeste 0 -- -- 74
2020-03-27 02:00:00 13.9 2 Oeste 13 Oeste 0 -- -- 67
2020-03-27 01:00:00 13.1 0 Calma 8 Sudoeste 0 -- -- 71
2020-03-27 00:00:00 13.7 2 Oeste 9 Este 0 -- -- 64
2020-03-26 23:00:00 14 0 Calma 4 Oeste 0 -- -- 62
2020-03-26 22:00:00 15.6 0 Calma 9 Norte 0 -- -- 54
2020-03-26 21:00:00 16.3 0 Calma 12 Noroeste 0 -- -- 50
2020-03-26 20:00:00 17.8 2 Noroeste 10 Oeste 0 -- -- 41
2020-03-26 19:00:00 19.7 4 Noroeste 18 Noroeste 0 -- -- 37
2020-03-26 18:00:00 21.8 5 Norte 26 Noroeste 0 -- -- 33
2020-03-26 17:00:00 23.7 6 Noroeste 23 Noroeste 0 -- -- 30
2020-03-26 16:00:00 21.9 5 Este 16 Oeste 0 -- -- 44
2020-03-26 15:00:00 21.3 7 Oeste 21 Sur 0 -- -- 57
2020-03-26 14:00:00 20.1 11 Sudoeste 20 Oeste 0 -- -- 58
2020-03-26 13:00:00 18.8 8 Sudoeste 19 Sudoeste 0 -- -- 61
2020-03-26 12:00:00 18.3 9 Sudoeste 18 Oeste 0 -- -- 64
2020-03-26 11:00:00 17.2 4 Sudoeste 13 Sudoeste 0 -- -- 67
2020-03-26 10:00:00 15.7 5 Sur 9 Sudeste 0 -- -- 71
2020-03-26 09:00:00 13.2 3 Sudoeste 10 Sudoeste 0 -- -- 86
2020-03-26 08:00:00 10.1 0 Calma 4 Este 0 -- -- 90
2020-03-26 07:00:00 10 0 Calma 7 Oeste 0 -- -- 87
2020-03-26 06:00:00 10.5 2 Oeste 9 Oeste 0 -- -- 88
2020-03-26 05:00:00 9.5 0 Calma 4 Sudoeste 0 -- -- 89
2020-03-26 04:00:00 9.7 0 Calma 7 Norte 0 -- -- 87
2020-03-26 03:00:00 10.3 0 Calma 5 Noroeste 0 -- -- 87
2020-03-26 02:00:00 10.1 0 Calma 4 Noroeste 0 -- -- 87
2020-03-26 01:00:00 9.8 0 Calma 3 Oeste 0 -- -- 86
2020-03-26 00:00:00 10.5 0 Calma 4 Norte 0 -- -- 85
2020-03-25 23:00:00 11.2 0 Calma 4 Noroeste 0 -- -- 86
2020-03-25 22:00:00 12.1 0 Calma 5 Oeste 0 -- -- 85
2020-03-25 21:00:00 12.3 0 Calma 5 Oeste 0 -- -- 84
2020-03-25 20:00:00 12.1 0 Calma 7 Sur 0 -- -- 83
2020-03-25 19:00:00 13.5 2 Sur 10 Sudeste 0 -- -- 76
2020-03-25 18:00:00 13.8 3 Sur 9 Este 0 -- -- 73
2020-03-25 17:00:00 13.9 4 Sudeste 8 Sudeste 0 -- -- 75
2020-03-25 16:00:00 13.5 3 Sudeste 9 Sudeste 0 -- -- 77
2020-03-25 15:00:00 13.3 4 Este 9 Sudeste 0.2 -- -- 83
2020-03-25 14:00:00 12.7 5 Este 15 Este 0 -- -- 85
2020-03-25 13:00:00 13.1 8 Sudeste 14 Sudeste 0 -- -- 85
2020-03-25 12:00:00 12.9 5 Sudoeste 12 Sur 0 -- -- 81
2020-03-25 11:00:00 12.3 5 Sudoeste 16 Oeste 0.2 -- -- 88
2020-03-25 10:00:00 12.1 6 Sudoeste 20 Oeste 0.4 -- -- 91
2020-03-25 09:00:00 11.8 3 Oeste 15 Noroeste 2.6 -- -- 93
2020-03-25 08:00:00 12 4 Oeste 13 Oeste 2.4 -- -- 93
2020-03-25 07:00:00 12.2 4 Oeste 14 Noroeste 1.8 -- -- 92
2020-03-25 06:00:00 13 9 Sudoeste 20 Sudoeste 6.6 -- -- 91
2020-03-25 05:00:00 13.7 0 Calma 6 Oeste 0.6 -- -- 88
2020-03-25 04:00:00 14 2 Sudoeste 7 Oeste 0 -- -- 86
2020-03-25 03:00:00 14.2 3 Noroeste 10 Oeste 0 -- -- 85
2020-03-25 02:00:00 14 0 Calma 6 Noroeste 0 -- -- 86
2020-03-25 01:00:00 14 2 Oeste 7 Noroeste 0 -- -- 85
2020-03-25 00:00:00 13.9 2 Noroeste 9 Noroeste 0 -- -- 87
2020-03-24 23:00:00 13.9 3 Noroeste 11 Noroeste 0 -- -- 87
2020-03-24 22:00:00 14.1 2 Oeste 9 Oeste 0 -- -- 88
2020-03-24 21:00:00 14.3 3 Oeste 13 Noroeste 0.4 -- -- 86
2020-03-24 20:00:00 15.2 3 Oeste 14 Sudoeste 0.2 -- -- 80
2020-03-24 19:00:00 16.4 5 Oeste 13 Sudoeste 0 -- -- 72
2020-03-24 18:00:00 17.3 5 Sudoeste 14 Oeste 0 -- -- 71
2020-03-24 17:00:00 18.1 8 Sudoeste 12 Sudoeste 0 -- -- 67
2020-03-24 16:00:00 18.2 6 Oeste 15 Oeste 0 -- -- 58
2020-03-24 15:00:00 18.4 4 Sudoeste 13 Sudoeste 0 -- -- 62
2020-03-24 14:00:00 19.1 7 Sudeste 14 Sudeste 0 -- -- 63
2020-03-24 13:00:00 18.3 4 Sur 14 Nordeste 0 -- -- 65
2020-03-24 12:00:00 18.6 3 Norte 20 Noroeste 0 -- -- 57
2020-03-24 11:00:00 17.1 5 Norte 25 Norte 0 -- -- 63
2020-03-24 10:00:00 14.8 8 Noroeste 23 Noroeste 0.2 -- -- 73
2020-03-24 09:00:00 14.1 10 Noroeste 28 Noroeste 0 -- -- 77
2020-03-24 08:00:00 14 12 Noroeste 33 Noroeste 0 -- -- 76
2020-03-24 07:00:00 13.7 11 Noroeste 26 Noroeste 0.6 -- -- 77
2020-03-24 06:00:00 15.2 6 Norte 20 Norte 0 -- -- 64
2020-03-24 05:00:00 14.9 4 Nordeste 28 Noroeste 0 -- -- 64
2020-03-24 04:00:00 14.7 13 Noroeste 28 Norte 0 -- -- 65
2020-03-24 03:00:00 14.5 11 Noroeste 29 Norte 0 -- -- 66
2020-03-24 02:00:00 13.8 10 Noroeste 33 Norte 0 -- -- 70
2020-03-24 01:00:00 13.8 10 Noroeste 28 Noroeste 0 -- -- 69
2020-03-24 00:00:00 13.6 8 Noroeste 25 Noroeste 0 -- -- 70
2020-03-23 23:00:00 13.4 8 Noroeste 18 Norte 0 -- -- 72
2020-03-23 22:00:00 12.7 6 Noroeste 21 Noroeste 0 -- -- 80
2020-03-23 21:00:00 11.9 5 Noroeste 19 Norte 0.2 -- -- 87
2020-03-23 20:00:00 11.3 2 Norte 13 Nordeste 0 -- -- 92
2020-03-23 19:00:00 11.4 2 Norte 15 Nordeste 0.4 -- -- 94
2020-03-23 18:00:00 10.9 0 Calma 8 Norte 1.4 -- -- 95
2020-03-23 17:00:00 10.9 4 Norte 12 Nordeste 4.6 -- -- 95
2020-03-23 16:00:00 10.8 5 Nordeste 12 Nordeste 4.2 -- -- 95
2020-03-23 15:00:00 11.1 0 Calma 10 Sudeste 7 -- -- 94
2020-03-23 14:00:00 11.3 2 Noroeste 5 Noroeste 5.2 -- -- 93
2020-03-23 13:00:00 11.7 0 Calma 4 Noroeste 3.4 -- -- 91
2020-03-23 12:00:00 12.8 0 Calma 9 Nordeste 0.8 -- -- 86
2020-03-23 11:00:00 13.3 5 Nordeste 10 Nordeste 0 -- -- 90
2020-03-23 10:00:00 12.2 3 Norte 11 Nordeste 0 -- -- 94
2020-03-23 09:00:00 11.1 2 Norte 9 Nordeste 0 -- -- 96
2020-03-23 08:00:00 10.3 0 Calma 5 Nordeste 0.2 -- -- 96
2020-03-23 07:00:00 10.1 0 Calma 7 Nordeste 0 -- -- 96
2020-03-23 06:00:00 10.4 0 Calma 4 Noroeste 0 -- -- 96
2020-03-23 05:00:00 9.9 0 Calma 4 Nordeste 0 -- -- 96
2020-03-23 04:00:00 9.7 0 Calma 3 Norte 0 -- -- 96
2020-03-23 03:00:00 9.8 0 Calma 4 Norte 0 -- -- 95
2020-03-23 02:00:00 9.8 0 Calma 2 Oeste 0 -- -- 95
2020-03-23 01:00:00 10 0 Calma 2 Sudoeste 0 -- -- 94
2020-03-23 00:00:00 10.9 0 Calma 9 Noroeste 0.2 -- -- 94
2020-03-22 23:00:00 12 0 Calma 5 Noroeste 1 -- -- 93
2020-03-22 22:00:00 11.9 0 Calma 4 Noroeste 0 -- -- 92
2020-03-22 21:00:00 11.9 0 Calma 2 Noroeste 0.2 -- -- 91
2020-03-22 20:00:00 12.6 0 Calma 8 Este 0.2 -- -- 88
2020-03-22 19:00:00 13.2 3 Sur 11 Sudoeste 0 -- -- 82
2020-03-22 18:00:00 13.1 0 Calma 13 Sudoeste 0.6 -- -- 83
2020-03-22 17:00:00 13.3 6 Sudoeste 14 Sudoeste 0.2 -- -- 83
2020-03-22 16:00:00 13.7 6 Sur 12 Sur 0 -- -- 78
2020-03-22 15:00:00 13.8 4 Sur 14 Sudeste 0 -- -- 80
2020-03-22 14:00:00 13.9 6 Sur 18 Este 0 -- -- 77
2020-03-22 13:00:00 14.2 6 Sudeste 12 Sudeste 0 -- -- 75
2020-03-22 12:00:00 13.7 4 Este 13 Este 0 -- -- 75
2020-03-22 11:00:00 12.9 4 Nordeste 9 Este 0 -- -- 93
2020-03-22 10:00:00 11.1 2 Sur 5 Nordeste 0 -- -- 96
2020-03-22 09:00:00 10.7 0 Calma 6 Nordeste 0.2 -- -- 96
2020-03-22 08:00:00 10.3 0 Calma 8 Norte 0.2 -- -- 96
2020-03-22 07:00:00 10.5 0 Calma 8 Nordeste 0.2 -- -- 96
2020-03-22 06:00:00 10.5 2 Norte 8 Nordeste 0.2 -- -- 96
2020-03-22 05:00:00 10.6 0 Calma 5 Sur 0.4 -- -- 95
2020-03-22 04:00:00 10.8 0 Calma 4 Oeste 1.2 -- -- 95
2020-03-22 03:00:00 10.7 0 Calma 6 Oeste 1.2 -- -- 94
2020-03-22 02:00:00 10.4 3 Oeste 6 Oeste 0.4 -- -- 93
2020-03-22 01:00:00 10.6 2 Oeste 18 Oeste 2.8 -- -- 93
2020-03-22 00:00:00 12.1 5 Sudoeste 15 Sudoeste 0.2 -- -- 95
2020-03-21 23:00:00 11.5 2 Oeste 6 Oeste 0 -- -- 94
2020-03-21 22:00:00 11.8 0 Calma 5 Sudoeste 0.2 -- -- 93
2020-03-21 21:00:00 12 0 Calma 7 Sudoeste 0.6 -- -- 92
2020-03-21 20:00:00 11.8 0 Calma 17 Sudoeste 0 -- -- 90
2020-03-21 19:00:00 11.8 5 Sudoeste 23 Sur 2 -- -- 89
2020-03-21 18:00:00 12.4 7 Sudoeste 28 Sudoeste 1 -- -- 82
2020-03-21 17:00:00 13.5 9 Sudoeste 30 Sudoeste 0.2 -- -- 76
2020-03-21 16:00:00 15.7 5 Sur 22 Sur 0 -- -- 72
2020-03-21 15:00:00 16.3 9 Sudoeste 24 Sudoeste 0 -- -- 64
2020-03-21 14:00:00 17 9 Sudoeste 27 Sudoeste 0 -- -- 63
2020-03-21 13:00:00 15.4 11 Sudoeste 27 Oeste 0 -- -- 69
2020-03-21 12:00:00 15.8 9 Sur 21 Sur 0 -- -- 71
2020-03-21 11:00:00 14.9 3 Nordeste 11 Nordeste 0.2 -- -- 79
2020-03-21 10:00:00 14.5 5 Este 10 Este 0 -- -- 91
2020-03-21 09:00:00 12.4 3 Nordeste 7 Nordeste 0 -- -- 96
2020-03-21 08:00:00 10.7 0 Calma 3 Noroeste 0 -- -- 96
2020-03-21 07:00:00 10.7 0 Calma 4 Noroeste 0 -- -- 95
2020-03-21 06:00:00 11.6 0 Calma 6 Sudeste 0 -- -- 94
2020-03-21 05:00:00 11.6 2 Oeste 9 Norte 3 -- -- 94
2020-03-21 04:00:00 11.9 5 Este 25 Oeste 10.6 -- -- 94
2020-03-21 03:00:00 14.2 6 Sur 21 Sudeste 5.6 -- -- 94
2020-03-21 02:00:00 14.4 7 Sur 26 Sudeste 3 -- -- 93
2020-03-21 01:00:00 14.8 6 Sudeste 22 Este 0.6 -- -- 91
2020-03-21 00:00:00 15 8 Sudeste 26 Sudeste 0 -- -- 88
2020-03-20 23:00:00 15.4 12 Sudeste 33 Sudeste 0 -- -- 83
2020-03-20 22:00:00 15.4 10 Sudeste 24 Sudeste 0 -- -- 80
2020-03-20 21:00:00 15.3 9 Sudeste 23 Este 0 -- -- 81
2020-03-20 20:00:00 15.3 6 Sur 18 Sur 0 -- -- 80
2020-03-20 19:00:00 15.5 5 Sur 21 Sudoeste 0 -- -- 78
2020-03-20 18:00:00 16.3 9 Sudoeste 23 Sudoeste 0 -- -- 70
2020-03-20 17:00:00 18.5 6 Sudoeste 14 Sudoeste 0 -- -- 58
2020-03-20 16:00:00 18.2 0 Calma 13 Sudeste 0 -- -- 56
2020-03-20 15:00:00 16.6 4 Sur 12 Sudoeste 0 -- -- 65
2020-03-20 14:00:00 16.4 6 Sudeste 16 Sudeste 0 -- -- 66
2020-03-20 13:00:00 16.5 5 Sudeste 23 Sur 0 -- -- 68
2020-03-20 12:00:00 16.7 9 Sudeste 22 Sudeste 0 -- -- 68
2020-03-20 11:00:00 16.3 8 Sur 23 Sur 0 -- -- 67
2020-03-20 10:00:00 16.1 7 Sur 20 Sur 0 -- -- 68
2020-03-20 09:00:00 15.2 4 Sur 19 Este 0 -- -- 71
2020-03-20 08:00:00 14.9 6 Sur 18 Sudeste 0 -- -- 71
2020-03-20 07:00:00 14.8 6 Sudeste 20 Sudeste 0 -- -- 72
2020-03-20 06:00:00 14.9 9 Sur 25 Sur 0 -- -- 73
2020-03-20 05:00:00 14.9 5 Sudoeste 15 Sur 0 -- -- 79
2020-03-20 04:00:00 14.7 4 Sudoeste 12 Sur 0 -- -- 73
2020-03-20 03:00:00 14.9 4 Sudoeste 19 Sudoeste 0 -- -- 71
2020-03-20 02:00:00 15.1 8 Sudoeste 24 Sur 0 -- -- 68
2020-03-20 01:00:00 15.4 6 Sur 23 Sur 0 -- -- 71
2020-03-20 00:00:00 15.4 8 Sur 19 Sur 0 -- -- 78
2020-03-19 23:00:00 15.4 7 Sudoeste 19 Sur 0 -- -- 78
2020-03-19 22:00:00 15.5 5 Sudoeste 15 Sudoeste 0 -- -- 80
2020-03-19 21:00:00 15.5 4 Sudoeste 6 Sudoeste 0 -- -- 80
2020-03-19 20:00:00 15.6 0 Calma 7 Sudeste 0 -- -- 77
2020-03-19 19:00:00 16 3 Sudeste 14 Sudeste 0 -- -- 75
2020-03-19 18:00:00 16.4 5 Este 18 Sudeste 0 -- -- 73
2020-03-19 17:00:00 16.7 5 Sudeste 24 Sudeste 0 -- -- 71
2020-03-19 16:00:00 17.7 9 Sudeste 28 Sur 0 -- -- 67
2020-03-19 15:00:00 17.7 13 Sudeste 30 Sudeste 0 -- -- 67
2020-03-19 14:00:00 18 10 Sur 23 Sur 0 -- -- 67
2020-03-19 13:00:00 16.9 6 Sur 24 Sur 0 -- -- 69
2020-03-19 12:00:00 16.5 8 Sur 22 Sur 0 -- -- 71
2020-03-19 11:00:00 16.6 6 Sudoeste 24 Sudoeste 0 -- -- 73
2020-03-19 10:00:00 16.2 6 Sudoeste 19 Sudoeste 0 -- -- 73
2020-03-19 09:00:00 15.8 11 Sudoeste 19 Sudoeste 0 -- -- 73
2020-03-19 08:00:00 15.2 4 Sudoeste 14 Sudoeste 0 -- -- 76
2020-03-19 07:00:00 14.9 3 Oeste 21 Sudoeste 0 -- -- 77
2020-03-19 06:00:00 15.1 5 Oeste 17 Noroeste 0 -- -- 76
2020-03-19 05:00:00 15.1 5 Oeste 14 Oeste 0 -- -- 76
2020-03-19 04:00:00 15.1 7 Oeste 15 Oeste 0 -- -- 77
2020-03-19 03:00:00 15.3 7 Sudoeste 15 Oeste 0 -- -- 76
2020-03-19 02:00:00 15.2 4 Oeste 12 Oeste 0 -- -- 77
2020-03-19 01:00:00 15.5 4 Sudoeste 12 Oeste 0 -- -- 77
2020-03-19 00:00:00 15.7 4 Sudoeste 14 Sur 0 -- -- 76
2020-03-18 23:00:00 15.8 8 Sudoeste 15 Oeste 0 -- -- 77
2020-03-18 22:00:00 15.7 8 Oeste 15 Oeste 0 -- -- 77
2020-03-18 21:00:00 15.7 3 Oeste 9 Sur 0 -- -- 74
2020-03-18 20:00:00 16.2 2 Oeste 15 Sudeste 0 -- -- 71
2020-03-18 19:00:00 16.7 5 Sudeste 14 Sur 0 -- -- 68
2020-03-18 18:00:00 17.3 5 Sudeste 13 Este 0 -- -- 66
2020-03-18 17:00:00 18.2 6 Sudeste 17 Este 0 -- -- 63
2020-03-18 16:00:00 18.5 7 Sudeste 19 Sudeste 0 -- -- 61
2020-03-18 15:00:00 18.8 5 Sudeste 19 Sudeste 0 -- -- 62
2020-03-18 14:00:00 18.7 9 Sudeste 23 Sudeste 0 -- -- 63
2020-03-18 13:00:00 18.5 11 Sudeste 31 Sur 0 -- -- 63
2020-03-18 12:00:00 18.4 13 Sudeste 28 Sudeste 0 -- -- 64
2020-03-18 11:00:00 17.2 6 Sudeste 21 Sur 0 -- -- 69
2020-03-18 10:00:00 16.9 7 Sudeste 22 Sudeste 0 -- -- 71
2020-03-18 09:00:00 16.4 2 Norte 14 Este 0 -- -- 73
2020-03-18 08:00:00 16.1 5 Sudeste 15 Nordeste 0 -- -- 75
2020-03-18 07:00:00 15.9 3 Nordeste 13 Este 0 -- -- 76
2020-03-18 06:00:00 16 5 Este 18 Norte 0 -- -- 75
2020-03-18 05:00:00 16 6 Sudeste 17 Este 0 -- -- 75
2020-03-18 04:00:00 15.9 6 Nordeste 18 Este 0 -- -- 77
2020-03-18 03:00:00 16.2 5 Nordeste 18 Sudeste 0 -- -- 77
2020-03-18 02:00:00 16.4 8 Este 32 Este 0 -- -- 76
2020-03-18 01:00:00 16.1 4 Sudeste 15 Nordeste 0 -- -- 78
2020-03-18 00:00:00 15.5 3 Sudoeste 11 Este 0 -- -- 76
2020-03-17 23:00:00 15.1 3 Noroeste 13 Nordeste 0 -- -- 75
2020-03-17 22:00:00 14.9 2 Norte 11 Noroeste 0 -- -- 75
2020-03-17 21:00:00 14.6 0 Calma 10 Nordeste 0 -- -- 79
2020-03-17 20:00:00 15 4 Nordeste 9 Este 0 -- -- 78
2020-03-17 19:00:00 15.1 6 Este 17 Este 0 -- -- 77
2020-03-17 18:00:00 15.1 8 Sudeste 18 Sudeste 0 -- -- 77
2020-03-17 17:00:00 15.5 7 Sudeste 24 Sudeste 0 -- -- 73
2020-03-17 16:00:00 15.8 10 Sudeste 23 Sudeste 0 -- -- 66
2020-03-17 15:00:00 16.2 13 Sudeste 33 Sudeste 0 -- -- 57
2020-03-17 14:00:00 16.8 19 Sudeste 39 Sudeste 0 -- -- 52
2020-03-17 13:00:00 16 14 Sudeste 33 Sudeste 0 -- -- 57
2020-03-17 12:00:00 15.3 5 Este 17 Nordeste 0 -- -- 58
2020-03-17 11:00:00 14.7 4 Sudeste 14 Sudeste 0 -- -- 57
2020-03-17 10:00:00 14.1 6 Este 12 Este 0 -- -- 57
2020-03-17 09:00:00 12.1 3 Oeste 11 Sudoeste 0 -- -- 66
2020-03-17 08:00:00 11.5 3 Oeste 11 Noroeste 0 -- -- 69
2020-03-17 07:00:00 11.2 2 Sudeste 6 Oeste 0 -- -- 65
2020-03-17 06:00:00 10.9 0 Calma 3 Norte 0 -- -- 67
2020-03-17 05:00:00 10.4 0 Calma 4 Noroeste 0 -- -- 63
2020-03-17 04:00:00 9.6 0 Calma 3 Noroeste 0 -- -- 61
2020-03-17 03:00:00 10.4 0 Calma 6 Nordeste 0 -- -- 57
2020-03-17 02:00:00 10.8 0 Calma 5 Sudeste 0 -- -- 53
2020-03-17 01:00:00 11.9 0 Calma 13 Noroeste 0 -- -- 49
2020-03-17 00:00:00 12.4 7 Noroeste 23 Norte 0 -- -- 46
2020-03-16 23:00:00 13.1 6 Noroeste 31 Noroeste 0 -- -- 43
2020-03-16 22:00:00 13.7 5 Norte 18 Norte 0 -- -- 41
2020-03-16 21:00:00 13.8 5 Norte 14 Norte 0 -- -- 39
2020-03-16 20:00:00 14.6 3 Norte 15 Nordeste 0 -- -- 35
2020-03-16 19:00:00 15.6 4 Norte 19 Nordeste 0 -- -- 33
2020-03-16 18:00:00 16.4 8 Norte 29 Nordeste 0 -- -- 30
2020-03-16 17:00:00 18.4 7 Norte 31 Norte 0 -- -- 28
2020-03-16 16:00:00 19 6 Norte 35 Noroeste 0 -- -- 26
2020-03-16 15:00:00 18.4 7 Nordeste 29 Nordeste 0 -- -- 27
2020-03-16 14:00:00 18.3 9 Noroeste 28 Nordeste 0 -- -- 23
2020-03-16 13:00:00 17.6 8 Norte 32 Norte 0 -- -- 25
2020-03-16 12:00:00 16.6 10 Norte 40 Noroeste 0 -- -- 31
2020-03-16 11:00:00 14.9 10 Norte 35 Norte 0 -- -- 37
2020-03-16 10:00:00 12.2 9 Norte 30 Noroeste 0 -- -- 47
2020-03-16 09:00:00 12.1 9 Norte 40 Noroeste 0 -- -- 51
2020-03-16 08:00:00 12.2 12 Norte 36 Norte 0 -- -- 62
2020-03-16 07:00:00 12.8 8 Norte 24 Nordeste 0 -- -- 81
2020-03-16 06:00:00 13 0 Calma 4 Nordeste 0 -- -- 92
2020-03-16 05:00:00 12.7 0 Calma 2 Sudoeste 0.2 -- -- 92
2020-03-16 04:00:00 13.1 0 Calma 3 Noroeste 0 -- -- 92
2020-03-16 03:00:00 12.8 0 Calma 6 Oeste 0 -- -- 92
2020-03-16 02:00:00 12.5 0 Calma 3 Oeste 0 -- -- 91
2020-03-16 01:00:00 12.1 0 Calma 3 Oeste 0 -- -- 91
2020-03-16 00:00:00 12.7 0 Calma 5 Sudoeste 0 -- -- 90
2020-03-15 23:00:00 13 0 Calma 8 Noroeste 0 -- -- 89
2020-03-15 22:00:00 13.2 2 Noroeste 7 Noroeste 0 -- -- 90
2020-03-15 21:00:00 13.8 3 Oeste 9 Sudoeste 0 -- -- 90
2020-03-15 20:00:00 14.1 3 Oeste 8 Sudoeste 0 -- -- 87
2020-03-15 19:00:00 15.6 2 Sudoeste 8 Sur 0 -- -- 81
2020-03-15 18:00:00 16 2 Sur 8 Sudeste 0 -- -- 77
2020-03-15 17:00:00 15.9 2 Sur 13 Sudeste 0 -- -- 79
2020-03-15 16:00:00 16.2 4 Sudoeste 12 Sur 0 -- -- 84
2020-03-15 15:00:00 15.7 3 Sudeste 10 Nordeste 0.2 -- -- 89
2020-03-15 14:00:00 15.6 5 Nordeste 12 Este 0.8 -- -- 90
2020-03-15 13:00:00 15.2 3 Sur 10 Sur 0.2 -- -- 89
2020-03-15 12:00:00 15.6 0 Calma 9 Sudeste 0 -- -- 85
2020-03-15 11:00:00 15.8 4 Sudeste 10 Sudeste 0 -- -- 84
2020-03-15 10:00:00 15.4 0 Calma 8 Sudeste 0 -- -- 85
2020-03-15 09:00:00 15.3 3 Sudeste 7 Sudeste 0 -- -- 85
2020-03-15 08:00:00 15.1 2 Sudoeste 8 Este 0 -- -- 85
2020-03-15 07:00:00 15.1 3 Nordeste 9 Nordeste 0 -- -- 84
2020-03-15 06:00:00 15.3 0 Calma 6 Nordeste 0 -- -- 84
2020-03-15 05:00:00 15.2 0 Calma 8 Este 0 -- -- 85
2020-03-15 04:00:00 15.2 4 Nordeste 6 Nordeste 0 -- -- 85
2020-03-15 03:00:00 15.2 0 Calma 6 Sudeste 0 -- -- 87
2020-03-15 02:00:00 15 2 Sudeste 5 Nordeste 0 -- -- 89
2020-03-15 01:00:00 14.7 0 Calma 4 Nordeste 0 -- -- 90
2020-03-15 00:00:00 13.6 0 Calma 2 Noroeste 0 -- -- 89
2020-03-14 23:00:00 13.6 0 Calma 2 Noroeste 0 -- -- 86
2020-03-14 22:00:00 13.7 0 Calma 2 Oeste 0 -- -- 82
2020-03-14 21:00:00 14.1 0 Calma 5 Oeste 0 -- -- 75
2020-03-14 20:00:00 15.1 2 Sudoeste 8 Oeste 0 -- -- 80
2020-03-14 19:00:00 16.3 4 Sudoeste 10 Sudoeste 0 -- -- 77
2020-03-14 18:00:00 17.5 4 Sur 12 Sur 0 -- -- 69
2020-03-14 17:00:00 18.1 7 Sur 16 Sur 0 -- -- 67
2020-03-14 16:00:00 18.2 6 Sur 16 Sur 0 -- -- 64
2020-03-14 15:00:00 18.5 6 Sur 18 Sudeste 0 -- -- 65
2020-03-14 14:00:00 18.4 8 Sudeste 18 Sudeste 0 -- -- 66
2020-03-14 13:00:00 18.4 6 Sudeste 14 Sudeste 0 -- -- 65
2020-03-14 12:00:00 18.2 7 Este 15 Sudeste 0 -- -- 64
2020-03-14 11:00:00 17.6 9 Este 18 Este 0 -- -- 66
2020-03-14 10:00:00 17.1 5 Este 11 Este 0 -- -- 71
2020-03-14 09:00:00 15.4 3 Nordeste 6 Nordeste 0 -- -- 81
2020-03-14 08:00:00 14 0 Calma 2 Noroeste 0 -- -- 85
2020-03-14 07:00:00 14.8 0 Calma 8 Nordeste 0 -- -- 84
2020-03-14 06:00:00 15.4 3 Nordeste 8 Este 0 -- -- 87
2020-03-14 05:00:00 15.4 3 Nordeste 8 Nordeste 0 -- -- 90
2020-03-14 04:00:00 15.6 3 Nordeste 9 Sudeste 0 -- -- 90
2020-03-14 03:00:00 15.7 4 Sudeste 9 Sudeste 0 -- -- 90
2020-03-14 02:00:00 15.7 4 Nordeste 13 Este 0 -- -- 90
2020-03-14 01:00:00 15.8 4 Este 10 Este 0 -- -- 91
2020-03-14 00:00:00 15.8 4 Nordeste 12 Sudeste 0 -- -- 91
2020-03-13 23:00:00 15.9 3 Nordeste 10 Nordeste 0 -- -- 90
2020-03-13 22:00:00 16 4 Nordeste 13 Nordeste 0 -- -- 88
2020-03-13 21:00:00 16.3 8 Nordeste 15 Nordeste 0 -- -- 86
2020-03-13 20:00:00 16.5 5 Nordeste 13 Este 0 -- -- 86
2020-03-13 19:00:00 17.1 8 Nordeste 15 Nordeste 0 -- -- 82
2020-03-13 18:00:00 18.8 7 Nordeste 11 Nordeste 0 -- -- 61
2020-03-13 17:00:00 19.9 4 Este 14 Este 0 -- -- 50
2020-03-13 16:00:00 20.7 5 Sudeste 10 Sudeste 0 -- -- 45
2020-03-13 15:00:00 20.2 6 Este 14 Este 0 -- -- 50
2020-03-13 14:00:00 20.9 6 Este 12 Este 0 -- -- 45
2020-03-13 13:00:00 20.3 5 Este 12 Sudeste 0 -- -- 48
2020-03-13 12:00:00 20.3 6 Sur 11 Sur 0 -- -- 56
2020-03-13 11:00:00 20.8 4 Sudeste 8 Sudeste 0 -- -- 49
2020-03-13 10:00:00 19 3 Sudeste 6 Este 0 -- -- 58
2020-03-13 09:00:00 15.7 2 Este 5 Noroeste 0 -- -- 70
2020-03-13 08:00:00 13.3 2 Noroeste 4 Sudoeste 0 -- -- 68
2020-03-13 07:00:00 13.4 0 Calma 5 Nordeste 0 -- -- 61
2020-03-13 06:00:00 14 0 Calma 4 Oeste 0 -- -- 58
2020-03-13 05:00:00 14.4 3 Nordeste 6 Sudoeste 0 -- -- 57
2020-03-13 04:00:00 14.5 0 Calma 5 Nordeste 0 -- -- 54
2020-03-13 03:00:00 15 0 Calma 3 Norte 0 -- -- 50
2020-03-13 02:00:00 16.3 3 Oeste 8 Oeste 0 -- -- 44
2020-03-13 01:00:00 15.7 0 Calma 3 Sudoeste 0 -- -- 48
2020-03-13 00:00:00 15.6 0 Calma 3 Sudoeste 0 -- -- 47
2020-03-12 23:00:00 16.2 0 Calma 5 Oeste 0 -- -- 45
2020-03-12 22:00:00 17.8 0 Calma 5 Oeste 0 -- -- 40
2020-03-12 21:00:00 17 0 Calma 3 Sudoeste 0 -- -- 43
2020-03-12 20:00:00 19 0 Calma 11 Oeste 0 -- -- 39
2020-03-12 19:00:00 21 6 Oeste 12 Sudoeste 0 -- -- 32
2020-03-12 18:00:00 22.4 4 Sudoeste 13 Sur 0 -- -- 29
2020-03-12 17:00:00 23.5 7 Sur 15 Oeste 0 -- -- 27
2020-03-12 16:00:00 24.2 8 Sudoeste 18 Sudoeste 0 -- -- 27
2020-03-12 15:00:00 24.5 8 Sudoeste 15 Oeste 0 -- -- 26
2020-03-12 14:00:00 25.1 6 Sudoeste 18 Oeste 0 -- -- 25
2020-03-12 13:00:00 25.5 7 Sudoeste 19 Sudoeste 0 -- -- 25
2020-03-12 12:00:00 25.3 5 Sur 14 Sudeste 0 -- -- 26
2020-03-12 11:00:00 24.8 4 Sudeste 9 Este 0 -- -- 28
2020-03-12 10:00:00 22.8 0 Calma 5 Norte 0 -- -- 35
2020-03-12 09:00:00 19.4 0 Calma 4 Noroeste 0 -- -- 48
2020-03-12 08:00:00 17.6 0 Calma 6 Noroeste 0 -- -- 42
2020-03-12 07:00:00 17.5 0 Calma 6 Noroeste 0 -- -- 41
2020-03-12 06:00:00 17.1 0 Calma 8 Oeste 0 -- -- 37
2020-03-12 05:00:00 16 0 Calma 5 Norte 0 -- -- 42
2020-03-12 04:00:00 14.7 0 Calma 4 Noroeste 0 -- -- 50
2020-03-12 03:00:00 15.4 0 Calma 4 Noroeste 0 -- -- 61
2020-03-12 02:00:00 15.1 0 Calma 5 Noroeste 0 -- -- 59
2020-03-12 01:00:00 15.1 0 Calma 3 Noroeste 0 -- -- 57
2020-03-12 00:00:00 15.5 0 Calma 3 Nordeste 0 -- -- 51
2020-03-11 23:00:00 16.9 0 Calma 4 Sudoeste 0 -- -- 44
2020-03-11 22:00:00 17.9 0 Calma 8 Oeste 0 -- -- 41
2020-03-11 21:00:00 17.7 0 Calma 3 Oeste 0 -- -- 41
2020-03-11 20:00:00 18.6 0 Calma 3 Nordeste 0 -- -- 38
2020-03-11 19:00:00 20.6 3 Nordeste 9 Nordeste 0 -- -- 37
2020-03-11 18:00:00 23.1 5 Este 10 Este 0 -- -- 30
2020-03-11 17:00:00 23.9 5 Este 12 Este 0 -- -- 29
2020-03-11 16:00:00 23.6 4 Este 11 Este 0 -- -- 31
2020-03-11 15:00:00 22.5 6 Este 13 Este 0 -- -- 35
2020-03-11 14:00:00 22.1 6 Sudeste 13 Sudeste 0 -- -- 33
2020-03-11 13:00:00 22 8 Este 14 Este 0 -- -- 35
2020-03-11 12:00:00 21.2 7 Este 13 Este 0 -- -- 35
2020-03-11 11:00:00 20.4 6 Sudeste 12 Este 0 -- -- 33
2020-03-11 10:00:00 20 3 Sudeste 7 Sudeste 0 -- -- 37
2020-03-11 09:00:00 18.9 3 Este 10 Nordeste 0 -- -- 43
2020-03-11 08:00:00 15 0 Calma 7 Nordeste 0 -- -- 54
2020-03-11 07:00:00 13.5 0 Calma 3 Sudeste 0 -- -- 52
2020-03-11 06:00:00 12.6 0 Calma 3 Sudoeste 0 -- -- 52
2020-03-11 05:00:00 13.1 0 Calma 4 Noroeste 0 -- -- 48
2020-03-11 04:00:00 13.6 0 Calma 4 Noroeste 0 -- -- 46
2020-03-11 03:00:00 13.9 0 Calma 3 Noroeste 0 -- -- 45
2020-03-11 02:00:00 13.8 0 Calma 4 Norte 0 -- -- 45
2020-03-11 01:00:00 14 0 Calma 4 Noroeste 0 -- -- 45
2020-03-11 00:00:00 13.9 0 Calma 4 Noroeste 0 -- -- 46
2020-03-10 23:00:00 14.4 0 Calma 3 Noroeste 0 -- -- 45
2020-03-10 22:00:00 13.9 0 Calma 3 Noroeste 0 -- -- 47
2020-03-10 21:00:00 14.8 0 Calma 3 Norte 0 -- -- 45
2020-03-10 20:00:00 16 0 Calma 4 Oeste 0 -- -- 41
2020-03-10 19:00:00 17 0 Calma 6 Sudeste 0 -- -- 42
2020-03-10 18:00:00 18.9 0 Calma 14 Sudeste 0 -- -- 38
2020-03-10 17:00:00 19.7 5 Sudeste 17 Sudeste 0 -- -- 36
2020-03-10 16:00:00 19.9 4 Sudeste 19 Este 0 -- -- 38
2020-03-10 15:00:00 20.3 5 Sur 22 Sur 0 -- -- 43
2020-03-10 14:00:00 20.6 6 Sudeste 19 Este 0 -- -- 43
2020-03-10 13:00:00 21.1 9 Este 22 Este 0 -- -- 41
2020-03-10 12:00:00 21.2 8 Este 20 Sudeste 0 -- -- 34
2020-03-10 11:00:00 22 8 Este 14 Este 0 -- -- 32
2020-03-10 10:00:00 20.4 3 Nordeste 9 Este 0 -- -- 40
2020-03-10 09:00:00 17.1 0 Calma 4 Sudeste 0 -- -- 49
2020-03-10 08:00:00 14.1 0 Calma 5 Sudeste 0 -- -- 54
2020-03-10 07:00:00 15.1 0 Calma 7 Sudoeste 0 -- -- 50
2020-03-10 06:00:00 17.5 3 Sur 22 Noroeste 0 -- -- 39
2020-03-10 05:00:00 19.3 10 Noroeste 32 Noroeste 0 -- -- 33
2020-03-10 04:00:00 19.3 14 Noroeste 41 Noroeste 0 -- -- 31
2020-03-10 03:00:00 19.7 13 Norte 31 Noroeste 0 -- -- 32
2020-03-10 02:00:00 19.8 10 Norte 32 Norte 0 -- -- 32
2020-03-10 01:00:00 19.7 7 Norte 32 Norte 0 -- -- 33
2020-03-10 00:00:00 20.2 9 Norte 32 Norte 0 -- -- 33